Jackson, MS

4:58 AM CST on February 21, 2018 (GMT -0600)
Belhaven | | Change Station
Active Advisory: Flood Warning

Elev 318 ft 32.32 °N, 90.16 °W | Updated 12 seconds ago

Mostly Cloudy
Mostly Cloudy
69.8 °F
Feels Like 69.8 °F
N
0.0
Wind Variable Wind from South
Gusts 0.0 mph

Today
High -- | Low -- °F
--% Chance of Precip.
Yesterday
High -- | Low -- °F
Precip. -- in
Pressure 30.17 in
Visibility 9.0 miles
Clouds Scattered Clouds 1100 ft
Mostly Cloudy 1600 ft
Mostly Cloudy 2200 ft
Dew Point 69 °F
Humidity 96%
Rainfall 0.00 in
Snow Depth Not available.
6:37 AM 5:51 PM
Waxing Crescent, 30% visible
METAR KHKS 211053Z AUTO 16010KT 9SM SCT011 BKN016 BKN022 21/21 A3019 RMK AO2 SLP216 T02110206
Pressure 30.17 in
Visibility 9.0 miles
Clouds Scattered Clouds 1100 ft
Mostly Cloudy 1600 ft
Mostly Cloudy 2200 ft
Dew Point 69 °F
Humidity 96%
Rainfall 0.00 in
Snow Depth Not available.
6:37 AM 5:51 PM
Waxing Crescent, 30% visible
METAR KHKS 211053Z AUTO 16010KT 9SM SCT011 BKN016 BKN022 21/21 A3019 RMK AO2 SLP216 T02110206

Get Your Daily Forecast Email!

Thanks for signing up!

Be on the lookout for a verification email in your inbox.

You'll start receiving severe weather alerts in your inbox..

×

10-Day Weather Forecast

Almanac

Astronomy

Feb. 21, 2018 Rise Set
Actual Time
Civil Twilight
Nautical Twilight
Astronomical Twilight
Moon
Length of Visible Light
Length of Day
Tomorrow will be .
, % of the Moon is Illuminated

Today's Extremes

State Highs State Lows

Community

WunderPhotos

Category 6

Welcome to Category 6. This is the collective home for Weather Underground's featured writeups by Dr. Jeff Masters (right), Bob Henson (left), Chris Burt, and other regular contributors.

Nearby

Air Quality

  Air Quality AQ Index Pollutant
Not available.

Snow Depth

Station Depth Elevation

Earthquake Activity

City Distance Mag. Time & Date
Minimum magnitude displayed is 2.5.

Coastal Water Temperatures

Place Temperature

Stations

Nearby Weather Stations

Station Location Temp. Windchill Dew Point Humidity Wind Precip. Elev Updated Type
                   

Watches & Warnings

Flood Warning
Issued: 7:00 PM CST Feb. 20, 2018 – National Weather Service


The Flood Warning continues for
the Big Black River near Bovina
* until Saturday evening.
* At 6:15 PM Tuesday the stage was 28.6 feet.
* Minor flooding is occurring and minor flooding is forecast.
* Flood stage is 28.0 feet.
* Forecast... the river will continue rising to near 31.5 feet early
Friday morning.
* Impact... at 32.0 feet... several access roads along and near the
river are under water.
* Impact... at 28.0 feet... low-lying agricultural land near the river
begins to flood.


              Flood observed forecast 6 am crest
location stg stg day time Wed Thu Fri crest time date

Lower Big Black River
Bovina 28 28.6 Tue 06 PM 29.3 31.0 31.4 31.5 12 am 02/23




Lat... Lon 3217 9093 3224 9078 3256 9064 3245 9052
      3218 9065 3204 9102